sensor_id;sensor_type;location;lat;lon;timestamp;pressure;altitude;pressure_sealevel;temperature;humidity
54876;BME280;40764;48.472;8.166;2024-02-21T00:03:41;99289.44;;;5.63;100.00
54876;BME280;40764;48.472;8.166;2024-02-21T00:09:42;99287.44;;;5.23;100.00
54876;BME280;40764;48.472;8.166;2024-02-21T00:15:43;99274.22;;;5.38;100.00
54876;BME280;40764;48.472;8.166;2024-02-21T00:21:43;99268.56;;;5.63;100.00
54876;BME280;40764;48.472;8.166;2024-02-21T00:27:43;99277.63;;;5.69;100.00
54876;BME280;40764;48.472;8.166;2024-02-21T00:33:48;99260.75;;;5.67;100.00
54876;BME280;40764;48.472;8.166;2024-02-21T00:39:48;99254.53;;;5.54;100.00
54876;BME280;40764;48.472;8.166;2024-02-21T00:45:49;99246.16;;;5.44;100.00
54876;BME280;40764;48.472;8.166;2024-02-21T00:51:50;99237.66;;;5.41;100.00
54876;BME280;40764;48.472;8.166;2024-02-21T00:57:50;99216.56;;;5.54;100.00
54876;BME280;40764;48.472;8.166;2024-02-21T01:03:51;99210.19;;;5.60;100.00
54876;BME280;40764;48.472;8.166;2024-02-21T01:09:53;99206.25;;;5.68;100.00
54876;BME280;40764;48.472;8.166;2024-02-21T01:15:53;99184.91;;;5.72;100.00
54876;BME280;40764;48.472;8.166;2024-02-21T01:21:54;99187.66;;;5.60;100.00
54876;BME280;40764;48.472;8.166;2024-02-21T01:27:54;99174.19;;;5.65;100.00
54876;BME280;40764;48.472;8.166;2024-02-21T01:33:54;99154.63;;;5.63;100.00
54876;BME280;40764;48.472;8.166;2024-02-21T01:39:55;99138.44;;;5.68;100.00
54876;BME280;40764;48.472;8.166;2024-02-21T01:45:57;99127.31;;;5.81;100.00
54876;BME280;40764;48.472;8.166;2024-02-21T01:51:57;99125.06;;;5.90;100.00
54876;BME280;40764;48.472;8.166;2024-02-21T01:57:57;99126.91;;;5.61;100.00
54876;BME280;40764;48.472;8.166;2024-02-21T02:03:59;99115.91;;;5.79;100.00
54876;BME280;40764;48.472;8.166;2024-02-21T02:09:59;99112.94;;;5.81;100.00
54876;BME280;40764;48.472;8.166;2024-02-21T02:16:00;99116.56;;;5.86;100.00
54876;BME280;40764;48.472;8.166;2024-02-21T02:22:09;99106.94;;;5.79;100.00
54876;BME280;40764;48.472;8.166;2024-02-21T02:28:09;99103.50;;;5.72;100.00
54876;BME280;40764;48.472;8.166;2024-02-21T02:34:10;99103.50;;;5.83;100.00
54876;BME280;40764;48.472;8.166;2024-02-21T02:40:10;99074.50;;;5.72;100.00
54876;BME280;40764;48.472;8.166;2024-02-21T02:46:12;99058.63;;;5.64;100.00
54876;BME280;40764;48.472;8.166;2024-02-21T02:52:13;99052.31;;;5.75;100.00
54876;BME280;40764;48.472;8.166;2024-02-21T02:58:13;99049.84;;;5.74;100.00
54876;BME280;40764;48.472;8.166;2024-02-21T03:04:13;99046.44;;;5.50;100.00
54876;BME280;40764;48.472;8.166;2024-02-21T03:10:14;99050.31;;;5.54;100.00
54876;BME280;40764;48.472;8.166;2024-02-21T03:16:17;99041.38;;;5.42;100.00
54876;BME280;40764;48.472;8.166;2024-02-21T03:22:17;99022.19;;;5.32;100.00
54876;BME280;40764;48.472;8.166;2024-02-21T03:28:18;98993.94;;;5.27;100.00
54876;BME280;40764;48.472;8.166;2024-02-21T03:34:18;98999.97;;;5.46;100.00
54876;BME280;40764;48.472;8.166;2024-02-21T03:40:19;98999.03;;;5.41;100.00
54876;BME280;40764;48.472;8.166;2024-02-21T03:46:20;98995.47;;;5.52;100.00
54876;BME280;40764;48.472;8.166;2024-02-21T03:52:20;98977.09;;;5.25;100.00
54876;BME280;40764;48.472;8.166;2024-02-21T03:58:20;98961.75;;;5.19;100.00
54876;BME280;40764;48.472;8.166;2024-02-21T04:04:21;98963.66;;;5.19;100.00
54876;BME280;40764;48.472;8.166;2024-02-21T04:10:21;98969.38;;;5.34;100.00
54876;BME280;40764;48.472;8.166;2024-02-21T04:16:22;98970.25;;;5.23;100.00
54876;BME280;40764;48.472;8.166;2024-02-21T04:22:22;98975.78;;;5.28;100.00
54876;BME280;40764;48.472;8.166;2024-02-21T04:28:23;98978.22;;;5.01;100.00
54876;BME280;40764;48.472;8.166;2024-02-21T04:34:23;98982.97;;;4.94;100.00
54876;BME280;40764;48.472;8.166;2024-02-21T04:40:32;98956.72;;;4.83;100.00
54876;BME280;40764;48.472;8.166;2024-02-21T04:46:32;98952.63;;;4.69;100.00
54876;BME280;40764;48.472;8.166;2024-02-21T04:52:32;98956.41;;;4.56;100.00
54876;BME280;40764;48.472;8.166;2024-02-21T04:58:33;98948.03;;;4.69;100.00
54876;BME280;40764;48.472;8.166;2024-02-21T05:04:33;98933.59;;;4.52;100.00
54876;BME280;40764;48.472;8.166;2024-02-21T05:10:34;98917.47;;;4.33;100.00
54876;BME280;40764;48.472;8.166;2024-02-21T05:16:34;98930.50;;;4.60;100.00
54876;BME280;40764;48.472;8.166;2024-02-21T05:22:34;98934.03;;;4.60;100.00
54876;BME280;40764;48.472;8.166;2024-02-21T05:28:35;98909.72;;;4.37;100.00
54876;BME280;40764;48.472;8.166;2024-02-21T05:34:35;98909.63;;;4.20;100.00
54876;BME280;40764;48.472;8.166;2024-02-21T05:40:35;98906.81;;;4.15;100.00
54876;BME280;40764;48.472;8.166;2024-02-21T05:46:36;98903.03;;;4.04;100.00
54876;BME280;40764;48.472;8.166;2024-02-21T05:52:36;98908.00;;;4.08;100.00
54876;BME280;40764;48.472;8.166;2024-02-21T05:58:36;98902.31;;;4.21;100.00
54876;BME280;40764;48.472;8.166;2024-02-21T06:04:36;98901.53;;;4.09;100.00
54876;BME280;40764;48.472;8.166;2024-02-21T06:10:37;98886.44;;;4.01;100.00
54876;BME280;40764;48.472;8.166;2024-02-21T06:16:37;98895.28;;;4.08;100.00
54876;BME280;40764;48.472;8.166;2024-02-21T06:22:37;98889.06;;;4.08;100.00
54876;BME280;40764;48.472;8.166;2024-02-21T06:28:38;98892.56;;;3.96;100.00
54876;BME280;40764;48.472;8.166;2024-02-21T06:34:38;98882.00;;;3.95;100.00
54876;BME280;40764;48.472;8.166;2024-02-21T06:40:38;98886.69;;;3.88;100.00
54876;BME280;40764;48.472;8.166;2024-02-21T06:46:40;98884.47;;;3.96;100.00
54876;BME280;40764;48.472;8.166;2024-02-21T06:52:40;98876.34;;;4.08;100.00
54876;BME280;40764;48.472;8.166;2024-02-21T06:58:40;98871.13;;;4.30;100.00
54876;BME280;40764;48.472;8.166;2024-02-21T07:04:41;98865.94;;;4.28;100.00
54876;BME280;40764;48.472;8.166;2024-02-21T07:10:41;98857.34;;;4.43;100.00
54876;BME280;40764;48.472;8.166;2024-02-21T07:16:41;98856.19;;;4.39;100.00
54876;BME280;40764;48.472;8.166;2024-02-21T07:22:43;98857.13;;;4.61;100.00
54876;BME280;40764;48.472;8.166;2024-02-21T07:28:43;98864.56;;;4.66;100.00
54876;BME280;40764;48.472;8.166;2024-02-21T07:34:43;98861.38;;;4.97;100.00
54876;BME280;40764;48.472;8.166;2024-02-21T07:40:44;98852.53;;;4.74;100.00
54876;BME280;40764;48.472;8.166;2024-02-21T07:46:45;98852.59;;;4.50;100.00
54876;BME280;40764;48.472;8.166;2024-02-21T07:52:45;98844.66;;;5.34;100.00
54876;BME280;40764;48.472;8.166;2024-02-21T07:58:45;98837.38;;;5.51;100.00
54876;BME280;40764;48.472;8.166;2024-02-21T08:04:46;98838.66;;;5.82;100.00
54876;BME280;40764;48.472;8.166;2024-02-21T08:10:46;98845.22;;;5.86;100.00
54876;BME280;40764;48.472;8.166;2024-02-21T08:16:47;98822.03;;;5.96;100.00
54876;BME280;40764;48.472;8.166;2024-02-21T08:22:47;98805.59;;;6.24;100.00
54876;BME280;40764;48.472;8.166;2024-02-21T08:28:47;98793.38;;;6.05;100.00
54876;BME280;40764;48.472;8.166;2024-02-21T08:34:48;98786.25;;;6.42;100.00
54876;BME280;40764;48.472;8.166;2024-02-21T08:40:48;98778.84;;;6.87;100.00
54876;BME280;40764;48.472;8.166;2024-02-21T08:46:50;98773.66;;;6.85;100.00
54876;BME280;40764;48.472;8.166;2024-02-21T08:52:50;98759.50;;;6.83;100.00
54876;BME280;40764;48.472;8.166;2024-02-21T08:58:52;98755.94;;;7.46;100.00
54876;BME280;40764;48.472;8.166;2024-02-21T09:04:52;98761.78;;;7.60;99.65
54876;BME280;40764;48.472;8.166;2024-02-21T09:10:53;98754.66;;;8.06;98.86
54876;BME280;40764;48.472;8.166;2024-02-21T09:16:53;98741.31;;;8.05;99.40
54876;BME280;40764;48.472;8.166;2024-02-21T09:22:55;98745.75;;;8.26;97.59
54876;BME280;40764;48.472;8.166;2024-02-21T09:28:55;98735.78;;;8.47;97.48
54876;BME280;40764;48.472;8.166;2024-02-21T09:34:55;98730.63;;;8.66;97.08
54876;BME280;40764;48.472;8.166;2024-02-21T09:40:59;98706.94;;;8.92;96.38
54876;BME280;40764;48.472;8.166;2024-02-21T09:47:07;98695.78;;;8.83;98.35
54876;BME280;40764;48.472;8.166;2024-02-21T09:53:12;98679.66;;;9.32;98.55
54876;BME280;40764;48.472;8.166;2024-02-21T09:59:15;98682.97;;;10.04;96.07
54876;BME280;40764;48.472;8.166;2024-02-21T10:05:16;98673.13;;;10.13;92.94
54876;BME280;40764;48.472;8.166;2024-02-21T10:11:24;98666.59;;;10.59;93.44
54876;BME280;40764;48.472;8.166;2024-02-21T10:17:25;98664.78;;;10.39;92.43
54876;BME280;40764;48.472;8.166;2024-02-21T10:23:25;98637.38;;;10.88;91.87
54876;BME280;40764;48.472;8.166;2024-02-21T10:29:26;98620.69;;;11.18;87.14
54876;BME280;40764;48.472;8.166;2024-02-21T10:35:30;98618.63;;;11.34;85.40
54876;BME280;40764;48.472;8.166;2024-02-21T10:41:32;98608.13;;;11.65;78.70
54876;BME280;40764;48.472;8.166;2024-02-21T10:47:33;98603.09;;;11.96;75.21
54876;BME280;40764;48.472;8.166;2024-02-21T10:59:55;98590.00;;;12.50;68.87
54876;BME280;40764;48.472;8.166;2024-02-21T11:05:56;98581.06;;;12.77;66.26
54876;BME280;40764;48.472;8.166;2024-02-21T11:11:57;98570.22;;;12.53;59.09
54876;BME280;40764;48.472;8.166;2024-02-21T11:17:58;98552.16;;;12.65;56.71
54876;BME280;40764;48.472;8.166;2024-02-21T11:23:59;98539.94;;;12.90;54.00
54876;BME280;40764;48.472;8.166;2024-02-21T11:30:04;98529.19;;;13.08;52.08
54876;BME280;40764;48.472;8.166;2024-02-21T11:36:05;98507.25;;;13.08;52.40
54876;BME280;40764;48.472;8.166;2024-02-21T11:42:06;98502.63;;;12.76;49.13
54876;BME280;40764;48.472;8.166;2024-02-21T11:48:10;98487.63;;;13.14;50.52
54876;BME280;40764;48.472;8.166;2024-02-21T11:54:11;98472.16;;;12.91;48.15
54876;BME280;40764;48.472;8.166;2024-02-21T12:00:14;98462.31;;;13.03;48.46
54876;BME280;40764;48.472;8.166;2024-02-21T12:06:16;98455.00;;;13.13;49.27
54876;BME280;40764;48.472;8.166;2024-02-21T12:12:21;98436.56;;;12.99;48.46
54876;BME280;40764;48.472;8.166;2024-02-21T12:18:21;98431.41;;;13.12;48.04
54876;BME280;40764;48.472;8.166;2024-02-21T12:24:26;98406.59;;;13.17;48.40
54876;BME280;40764;48.472;8.166;2024-02-21T12:30:27;98390.16;;;13.30;47.23
54876;BME280;40764;48.472;8.166;2024-02-21T12:36:27;98384.72;;;13.39;46.38
54876;BME280;40764;48.472;8.166;2024-02-21T12:42:28;98383.91;;;13.39;45.85
54876;BME280;40764;48.472;8.166;2024-02-21T12:48:28;98371.50;;;13.41;43.16
54876;BME280;40764;48.472;8.166;2024-02-21T12:54:29;98367.25;;;13.57;44.58
54876;BME280;40764;48.472;8.166;2024-02-21T13:00:31;98337.38;;;13.56;44.63
54876;BME280;40764;48.472;8.166;2024-02-21T13:06:31;98330.00;;;13.43;44.68
54876;BME280;40764;48.472;8.166;2024-02-21T13:12:31;98311.97;;;13.50;41.75
54876;BME280;40764;48.472;8.166;2024-02-21T13:18:32;98311.78;;;13.47;42.37
54876;BME280;40764;48.472;8.166;2024-02-21T13:24:33;98280.09;;;13.41;42.11
54876;BME280;40764;48.472;8.166;2024-02-21T13:30:33;98273.16;;;13.43;42.98
54876;BME280;40764;48.472;8.166;2024-02-21T13:36:34;98266.84;;;13.43;42.99
54876;BME280;40764;48.472;8.166;2024-02-21T13:42:35;98248.81;;;13.50;43.66
54876;BME280;40764;48.472;8.166;2024-02-21T13:48:35;98229.66;;;13.37;42.20
54876;BME280;40764;48.472;8.166;2024-02-21T13:54:36;98217.41;;;13.65;41.55
54876;BME280;40764;48.472;8.166;2024-02-21T14:00:36;98211.78;;;13.70;41.75
54876;BME280;40764;48.472;8.166;2024-02-21T14:06:37;98236.78;;;13.60;40.23
54876;BME280;40764;48.472;8.166;2024-02-21T14:12:43;98220.00;;;13.70;41.09
54876;BME280;40764;48.472;8.166;2024-02-21T14:18:43;98190.34;;;13.50;40.81
54876;BME280;40764;48.472;8.166;2024-02-21T14:24:43;98172.47;;;13.61;40.99
54876;BME280;40764;48.472;8.166;2024-02-21T14:30:44;98168.94;;;13.69;42.67
54876;BME280;40764;48.472;8.166;2024-02-21T14:36:44;98156.19;;;13.33;41.33
54876;BME280;40764;48.472;8.166;2024-02-21T14:42:45;98130.19;;;13.40;41.00
54876;BME280;40764;48.472;8.166;2024-02-21T14:48:45;98123.28;;;13.42;43.81
54876;BME280;40764;48.472;8.166;2024-02-21T14:54:46;98129.84;;;13.32;43.19
54876;BME280;40764;48.472;8.166;2024-02-21T15:00:51;98111.19;;;13.21;42.29
54876;BME280;40764;48.472;8.166;2024-02-21T15:06:51;98114.75;;;12.99;42.47
54876;BME280;40764;48.472;8.166;2024-02-21T15:12:52;98113.13;;;12.98;42.77
54876;BME280;40764;48.472;8.166;2024-02-21T15:18:52;98080.47;;;12.65;46.72
54876;BME280;40764;48.472;8.166;2024-02-21T15:24:52;98081.16;;;12.49;50.70
54876;BME280;40764;48.472;8.166;2024-02-21T15:30:52;98068.97;;;12.19;55.44
54876;BME280;40764;48.472;8.166;2024-02-21T15:36:53;98046.50;;;11.94;57.55
54876;BME280;40764;48.472;8.166;2024-02-21T15:42:53;98027.75;;;11.74;57.66
54876;BME280;40764;48.472;8.166;2024-02-21T15:48:54;98020.78;;;11.40;59.61
54876;BME280;40764;48.472;8.166;2024-02-21T15:54:54;98031.44;;;11.28;58.88
54876;BME280;40764;48.472;8.166;2024-02-21T16:00:54;98006.69;;;11.06;62.62
54876;BME280;40764;48.472;8.166;2024-02-21T16:06:55;97988.97;;;11.03;62.29
54876;BME280;40764;48.472;8.166;2024-02-21T16:12:55;97984.94;;;10.68;62.61
54876;BME280;40764;48.472;8.166;2024-02-21T16:18:55;97967.34;;;10.61;62.93
54876;BME280;40764;48.472;8.166;2024-02-21T16:24:56;97968.84;;;10.53;60.54
54876;BME280;40764;48.472;8.166;2024-02-21T16:30:56;97975.44;;;10.66;59.98
54876;BME280;40764;48.472;8.166;2024-02-21T16:36:58;97964.81;;;10.64;60.04
54876;BME280;40764;48.472;8.166;2024-02-21T16:42:58;97943.63;;;10.56;59.06
54876;BME280;40764;48.472;8.166;2024-02-21T16:49:01;97935.84;;;10.63;54.91
54876;BME280;40764;48.472;8.166;2024-02-21T16:55:01;97939.84;;;10.71;58.30
54876;BME280;40764;48.472;8.166;2024-02-21T17:01:05;97939.28;;;10.69;59.73
54876;BME280;40764;48.472;8.166;2024-02-21T17:07:06;97933.72;;;10.60;60.58
54876;BME280;40764;48.472;8.166;2024-02-21T17:13:06;97930.28;;;10.68;58.20
54876;BME280;40764;48.472;8.166;2024-02-21T17:19:07;97912.66;;;10.47;60.31
54876;BME280;40764;48.472;8.166;2024-02-21T17:25:07;97919.16;;;10.51;60.28
54876;BME280;40764;48.472;8.166;2024-02-21T17:31:11;97911.72;;;10.38;60.04
54876;BME280;40764;48.472;8.166;2024-02-21T17:37:14;97912.25;;;10.67;53.37
54876;BME280;40764;48.472;8.166;2024-02-21T17:43:15;97895.06;;;10.80;53.31
54876;BME280;40764;48.472;8.166;2024-02-21T17:49:15;97888.69;;;10.99;50.21
54876;BME280;40764;48.472;8.166;2024-02-21T17:55:16;97888.06;;;10.88;53.20
54876;BME280;40764;48.472;8.166;2024-02-21T18:01:17;97908.84;;;10.89;53.01
54876;BME280;40764;48.472;8.166;2024-02-21T18:07:17;97853.34;;;10.61;55.28
54876;BME280;40764;48.472;8.166;2024-02-21T18:13:20;97885.03;;;10.48;58.86
54876;BME280;40764;48.472;8.166;2024-02-21T18:19:22;97868.81;;;10.38;58.04
54876;BME280;40764;48.472;8.166;2024-02-21T18:25:22;97866.69;;;10.21;61.00
54876;BME280;40764;48.472;8.166;2024-02-21T18:31:24;97869.13;;;10.37;57.17
54876;BME280;40764;48.472;8.166;2024-02-21T18:37:27;97868.41;;;10.31;59.63
54876;BME280;40764;48.472;8.166;2024-02-21T18:43:29;97847.69;;;10.44;58.35
54876;BME280;40764;48.472;8.166;2024-02-21T18:49:29;97839.78;;;10.42;57.94
54876;BME280;40764;48.472;8.166;2024-02-21T18:55:30;97842.94;;;10.49;58.46
54876;BME280;40764;48.472;8.166;2024-02-21T19:01:30;97829.97;;;10.55;58.20
54876;BME280;40764;48.472;8.166;2024-02-21T19:07:31;97834.31;;;10.56;58.70
54876;BME280;40764;48.472;8.166;2024-02-21T19:13:34;97827.13;;;10.74;57.80
54876;BME280;40764;48.472;8.166;2024-02-21T19:19:34;97810.53;;;10.57;59.27
54876;BME280;40764;48.472;8.166;2024-02-21T19:25:36;97821.06;;;10.49;61.28
54876;BME280;40764;48.472;8.166;2024-02-21T19:31:38;97815.88;;;10.34;62.02
54876;BME280;40764;48.472;8.166;2024-02-21T19:37:40;97808.19;;;10.36;63.72
54876;BME280;40764;48.472;8.166;2024-02-21T19:43:40;97795.84;;;10.39;63.99
54876;BME280;40764;48.472;8.166;2024-02-21T19:49:41;97783.31;;;10.38;63.27
54876;BME280;40764;48.472;8.166;2024-02-21T19:55:41;97771.38;;;10.47;63.08
54876;BME280;40764;48.472;8.166;2024-02-21T20:01:42;97762.38;;;10.47;63.40
54876;BME280;40764;48.472;8.166;2024-02-21T20:07:42;97766.41;;;10.49;63.54
54876;BME280;40764;48.472;8.166;2024-02-21T20:13:42;97741.44;;;10.42;65.60
54876;BME280;40764;48.472;8.166;2024-02-21T20:19:43;97728.47;;;10.34;66.81
54876;BME280;40764;48.472;8.166;2024-02-21T20:25:43;97715.63;;;10.35;65.06
54876;BME280;40764;48.472;8.166;2024-02-21T20:31:44;97625.88;;;10.28;65.04
54876;BME280;40764;48.472;8.166;2024-02-21T20:37:45;97679.00;;;11.39;56.51
54876;BME280;40764;48.472;8.166;2024-02-21T20:43:46;97654.59;;;11.51;56.51
54876;BME280;40764;48.472;8.166;2024-02-21T20:49:47;97643.66;;;11.51;57.18
54876;BME280;40764;48.472;8.166;2024-02-21T20:55:49;97637.13;;;11.30;59.16
54876;BME280;40764;48.472;8.166;2024-02-21T21:01:50;97616.03;;;11.30;56.72
54876;BME280;40764;48.472;8.166;2024-02-21T21:07:50;97615.47;;;11.20;58.68
54876;BME280;40764;48.472;8.166;2024-02-21T21:13:51;97621.03;;;11.06;62.02
54876;BME280;40764;48.472;8.166;2024-02-21T21:19:52;97623.91;;;11.01;63.34
54876;BME280;40764;48.472;8.166;2024-02-21T21:25:54;97608.13;;;10.75;65.05
54876;BME280;40764;48.472;8.166;2024-02-21T21:31:55;97594.44;;;10.53;66.20
54876;BME280;40764;48.472;8.166;2024-02-21T21:37:55;97583.88;;;10.60;66.47
54876;BME280;40764;48.472;8.166;2024-02-21T21:43:56;97585.41;;;10.30;68.58
54876;BME280;40764;48.472;8.166;2024-02-21T21:49:56;97578.81;;;10.31;68.78
54876;BME280;40764;48.472;8.166;2024-02-21T21:55:56;97568.22;;;10.16;70.91
54876;BME280;40764;48.472;8.166;2024-02-21T22:01:57;97574.91;;;10.23;71.19
54876;BME280;40764;48.472;8.166;2024-02-21T22:07:59;97569.66;;;10.13;72.63
54876;BME280;40764;48.472;8.166;2024-02-21T22:13:59;97570.56;;;10.09;71.72
54876;BME280;40764;48.472;8.166;2024-02-21T22:19:59;97570.09;;;10.65;67.99
54876;BME280;40764;48.472;8.166;2024-02-21T22:26:00;97557.34;;;10.38;70.02
54876;BME280;40764;48.472;8.166;2024-02-21T22:32:00;97555.63;;;10.42;70.73
54876;BME280;40764;48.472;8.166;2024-02-21T22:38:00;97539.28;;;10.73;65.65
54876;BME280;40764;48.472;8.166;2024-02-21T22:44:02;97529.66;;;11.07;62.29
54876;BME280;40764;48.472;8.166;2024-02-21T22:50:02;97521.78;;;11.54;58.91
54876;BME280;40764;48.472;8.166;2024-02-21T22:56:03;97513.22;;;11.86;56.09
54876;BME280;40764;48.472;8.166;2024-02-21T23:02:03;97506.63;;;12.22;53.50
54876;BME280;40764;48.472;8.166;2024-02-21T23:08:04;97505.31;;;12.36;53.65
54876;BME280;40764;48.472;8.166;2024-02-21T23:14:04;97514.69;;;12.27;56.01
54876;BME280;40764;48.472;8.166;2024-02-21T23:20:05;97499.03;;;12.01;58.34
54876;BME280;40764;48.472;8.166;2024-02-21T23:26:12;97498.56;;;11.99;59.07
54876;BME280;40764;48.472;8.166;2024-02-21T23:32:13;97490.50;;;11.86;60.42
54876;BME280;40764;48.472;8.166;2024-02-21T23:38:14;97497.50;;;11.61;63.70
54876;BME280;40764;48.472;8.166;2024-02-21T23:44:18;97465.09;;;11.45;66.91
54876;BME280;40764;48.472;8.166;2024-02-21T23:50:18;97447.97;;;11.23;67.98
54876;BME280;40764;48.472;8.166;2024-02-21T23:56:19;97437.19;;;11.17;69.42
